createdAt,value
2022-08-17T00:01:27.613Z,10.05
2022-08-17T00:06:31.357Z,12.48
2022-08-17T00:11:39.907Z,9.90
2022-08-17T00:16:56.415Z,12.15
2022-08-17T00:22:31.732Z,10.50
2022-08-17T00:27:24.672Z,8.20
2022-08-17T00:33:13.569Z,10.02
2022-08-17T00:37:49.702Z,8.77
2022-08-17T00:42:53.390Z,8.02
2022-08-17T00:47:55.502Z,9.88
2022-08-17T00:52:57.978Z,9.30
2022-08-17T00:58:03.212Z,9.48
2022-08-17T01:03:11.832Z,9.73
2022-08-17T01:08:16.521Z,7.78
2022-08-17T01:13:18.634Z,9.20
2022-08-17T01:18:21.139Z,9.95
2022-08-17T01:23:25.298Z,11.23
2022-08-17T01:28:52.359Z,8.65
2022-08-17T01:33:53.431Z,10.27
2022-08-17T01:38:55.357Z,9.02
2022-08-17T01:44:04.029Z,10.10
2022-08-17T01:49:08.985Z,11.13
2022-08-17T01:54:14.909Z,10.02
2022-08-17T01:59:18.896Z,9.65
2022-08-17T02:04:21.333Z,9.32
2022-08-17T02:09:29.503Z,11.40
2022-08-17T02:14:32.046Z,9.90
2022-08-17T02:19:34.242Z,9.75
2022-08-17T02:25:00.188Z,11.10
2022-08-17T02:30:00.638Z,18.77
2022-08-17T02:35:03.393Z,12.52
2022-08-17T02:40:06.922Z,12.57
2022-08-17T02:45:13.857Z,10.43
2022-08-17T02:50:19.085Z,12.45
2022-08-17T02:55:28.121Z,12.65
2022-08-17T03:00:48.611Z,10.50
2022-08-17T03:05:51.412Z,13.63
2022-08-17T03:10:53.657Z,11.07
2022-08-17T03:15:55.575Z,10.18
2022-08-17T03:21:00.829Z,11.27
2022-08-17T03:26:02.806Z,13.98
2022-08-17T03:31:06.436Z,9.85
2022-08-17T03:36:08.827Z,11.32
2022-08-17T03:41:10.714Z,11.48
2022-08-17T03:46:35.331Z,11.00
2022-08-17T03:51:56.143Z,10.73
2022-08-17T03:57:06.791Z,11.82
2022-08-17T04:02:18.994Z,13.65
2022-08-17T04:07:23.543Z,12.48
2022-08-17T04:12:30.825Z,12.52
2022-08-17T04:17:33.059Z,13.75
2022-08-17T04:22:35.073Z,12.35
2022-08-17T04:27:37.198Z,15.20
2022-08-17T04:33:04.850Z,14.45
2022-08-17T04:38:13.012Z,14.75
2022-08-17T04:43:18.904Z,15.73
2022-08-17T04:48:21.243Z,13.90
2022-08-17T04:53:23.187Z,16.40
2022-08-17T04:58:25.325Z,15.05
2022-08-17T05:03:27.885Z,15.52
2022-08-17T05:08:29.966Z,18.40
2022-08-17T05:13:31.821Z,17.23
2022-08-17T05:18:33.860Z,17.23
2022-08-17T05:23:42.833Z,17.65
2022-08-17T05:28:46.084Z,15.57
2022-08-17T05:33:49.538Z,14.02
2022-08-17T05:38:51.661Z,16.13
2022-08-17T05:43:56.435Z,15.02
2022-08-17T05:49:08.405Z,15.40
2022-08-17T05:54:25.664Z,19.42
2022-08-17T05:59:58.614Z,19.58
2022-08-17T06:05:15.088Z,20.65
2022-08-17T06:10:35.696Z,20.50
2022-08-17T06:16:26.180Z,21.45
2022-08-17T06:21:41.306Z,21.98
2022-08-17T06:26:45.328Z,21.20
2022-08-17T06:31:47.506Z,22.38
2022-08-17T06:36:56.502Z,22.08
2022-08-17T06:43:02.112Z,24.63
2022-08-17T06:47:42.801Z,23.98
2022-08-17T06:53:19.734Z,25.85
2022-08-17T06:58:29.567Z,24.58
2022-08-17T07:03:41.535Z,32.65
2022-08-17T07:08:59.123Z,30.23
2022-08-17T07:14:16.941Z,40.97
2022-08-17T07:19:26.370Z,35.80
2022-08-17T07:24:39.358Z,38.30
2022-08-17T07:29:46.810Z,36.40
2022-08-17T07:35:11.148Z,38.20
2022-08-17T07:40:21.712Z,40.55
2022-08-17T07:45:42.402Z,45.08
2022-08-17T07:50:49.457Z,44.38
2022-08-17T07:55:54.002Z,46.65
2022-08-17T08:01:08.073Z,44.78
2022-08-17T08:06:23.295Z,43.58
2022-08-17T08:11:33.084Z,44.63
2022-08-17T08:16:35.263Z,45.42
2022-08-17T08:21:55.182Z,42.50
2022-08-17T08:27:08.231Z,43.75
2022-08-17T08:32:25.785Z,45.75
2022-08-17T08:37:46.931Z,44.38
2022-08-17T08:42:58.744Z,46.75
2022-08-17T08:48:22.746Z,51.47
2022-08-17T08:53:33.910Z,46.63
2022-08-17T08:59:11.923Z,43.40
2022-08-17T09:05:10.323Z,40.80
2022-08-17T09:10:25.457Z,41.33
2022-08-17T09:15:34.908Z,42.13
2022-08-17T09:21:10.278Z,44.08
2022-08-17T09:26:22.822Z,42.80
2022-08-17T09:31:46.348Z,42.42
2022-08-17T09:37:16.314Z,43.58
2022-08-17T09:42:27.240Z,40.55
2022-08-17T09:47:43.285Z,43.20
2022-08-17T09:52:45.212Z,47.13
2022-08-17T09:57:59.138Z,45.28
2022-08-17T10:03:21.207Z,45.03
2022-08-17T10:08:32.527Z,47.85
2022-08-17T10:13:34.400Z,46.55
2022-08-17T10:18:53.114Z,45.90
2022-08-17T10:24:24.827Z,46.25
2022-08-17T10:29:51.860Z,45.92
2022-08-17T10:35:10.737Z,48.15
2022-08-17T10:40:43.671Z,50.25
2022-08-17T10:46:30.634Z,46.72
2022-08-17T10:51:38.045Z,41.60
2022-08-17T10:56:46.888Z,39.33
2022-08-17T11:02:04.915Z,39.53
2022-08-17T11:07:12.736Z,34.05
2022-08-17T11:12:45.657Z,36.97
2022-08-17T11:18:04.258Z,33.38
2022-08-17T11:23:21.087Z,31.95
2022-08-17T11:28:34.504Z,30.38
2022-08-17T11:33:36.735Z,24.20
2022-08-17T11:39:04.551Z,23.17
2022-08-17T11:44:20.709Z,20.65
2022-08-17T11:50:33.933Z,19.80
2022-08-17T11:55:40.539Z,22.23
2022-08-17T12:00:44.886Z,23.63
2022-08-17T12:05:47.394Z,22.38
2022-08-17T12:10:59.584Z,22.90
2022-08-17T12:16:03.029Z,19.15
2022-08-17T12:21:20.674Z,19.08
2022-08-17T12:26:26.561Z,20.98
2022-08-17T12:31:34.343Z,13.15
2022-08-17T12:36:40.182Z,12.00
2022-08-17T12:41:44.837Z,10.85
2022-08-17T12:47:01.073Z,10.80
2022-08-17T12:52:12.700Z,7.75
2022-08-17T12:57:21.594Z,10.38
2022-08-17T13:02:39.208Z,10.13
2022-08-17T13:07:42.566Z,8.80
2022-08-17T13:12:44.566Z,9.80
2022-08-17T13:17:57.394Z,8.77
2022-08-17T13:23:01.531Z,8.18
2022-08-17T13:28:04.082Z,7.80
2022-08-17T13:33:25.434Z,7.97
2022-08-17T13:38:47.828Z,8.15
2022-08-17T13:43:50.958Z,7.97
2022-08-17T13:49:09.555Z,7.90
2022-08-17T13:54:26.612Z,6.63
2022-08-17T13:59:58.172Z,7.13
2022-08-17T14:05:01.998Z,7.32
2022-08-17T14:10:17.811Z,16.67
2022-08-17T14:15:22.980Z,17.88
2022-08-17T14:20:25.472Z,19.88
2022-08-17T14:25:29.807Z,21.77
2022-08-17T14:30:31.972Z,18.10
2022-08-17T14:35:34.839Z,19.35
2022-08-17T14:40:37.898Z,16.45
2022-08-17T14:45:41.240Z,20.20
2022-08-17T14:50:44.214Z,30.15
2022-08-17T14:55:46.864Z,26.77
2022-08-17T15:00:51.080Z,25.27
2022-08-17T15:05:54.394Z,25.45
2022-08-17T15:10:56.789Z,24.42
2022-08-17T15:16:02.629Z,27.33
2022-08-17T15:21:06.703Z,28.23
2022-08-17T15:26:09.113Z,27.25
2022-08-17T15:31:11.643Z,24.60
2022-08-17T15:36:14.530Z,24.65
2022-08-17T15:41:18.536Z,24.27
2022-08-17T15:46:23.473Z,22.33
2022-08-17T15:51:32.214Z,19.40
2022-08-17T15:56:34.334Z,23.48
2022-08-17T16:03:01.076Z,22.95
2022-08-17T16:06:59.970Z,23.05
2022-08-17T16:12:19.141Z,23.02
2022-08-17T16:17:39.206Z,24.50
2022-08-17T16:22:45.641Z,23.42
2022-08-17T16:27:50.458Z,22.60
2022-08-17T16:32:53.644Z,20.48
2022-08-17T16:37:57.614Z,20.48
2022-08-17T16:43:00.349Z,20.55
2022-08-17T16:48:02.298Z,19.85
2022-08-17T16:53:17.166Z,17.95
2022-08-17T16:58:19.291Z,16.85
2022-08-17T17:03:24.524Z,18.42
2022-08-17T17:09:11.145Z,20.38
2022-08-17T17:14:21.160Z,19.33
2022-08-17T17:19:35.360Z,20.73
2022-08-17T17:24:50.686Z,23.23
2022-08-17T17:29:58.804Z,19.15
2022-08-17T17:35:07.175Z,20.58
2022-08-17T17:40:31.946Z,19.90
2022-08-17T17:45:40.672Z,19.67
2022-08-17T17:50:52.072Z,19.58
2022-08-17T17:56:02.834Z,18.80
2022-08-17T18:01:42.484Z,22.85
2022-08-17T18:07:09.997Z,28.58
2022-08-17T18:12:45.654Z,30.58
2022-08-17T18:18:02.219Z,33.05
2022-08-17T18:23:04.259Z,31.58
2022-08-17T18:28:09.049Z,28.33
2022-08-17T18:33:26.519Z,27.92
2022-08-17T18:38:35.191Z,27.88
2022-08-17T18:43:52.835Z,28.48
2022-08-17T18:48:59.828Z,29.02
2022-08-17T18:54:23.279Z,26.70
2022-08-17T18:59:26.770Z,28.23
2022-08-17T19:04:39.427Z,31.00
2022-08-17T19:09:47.083Z,31.80
2022-08-17T19:14:51.714Z,34.38
2022-08-17T19:20:02.380Z,34.67
2022-08-17T19:25:16.249Z,34.03
2022-08-17T19:30:20.318Z,37.75
2022-08-17T19:35:30.357Z,38.28
2022-08-17T19:40:54.475Z,37.65
2022-08-17T19:46:19.065Z,38.00
2022-08-17T19:51:42.065Z,36.03
2022-08-17T19:57:08.160Z,34.75
2022-08-17T20:02:36.983Z,33.70
2022-08-17T20:08:06.149Z,31.02
2022-08-17T20:13:13.918Z,34.05
2022-08-17T20:18:29.129Z,32.15
2022-08-17T20:23:52.183Z,34.15
2022-08-17T20:29:37.306Z,36.83
2022-08-17T20:34:46.479Z,33.58
2022-08-17T20:39:52.637Z,37.08
2022-08-17T20:45:02.857Z,41.05
2022-08-17T20:50:33.767Z,39.22
2022-08-17T20:55:36.018Z,42.95
2022-08-17T21:00:57.146Z,42.85
2022-08-17T21:06:15.314Z,47.75
2022-08-17T21:12:03.168Z,44.30
2022-08-17T21:17:29.548Z,44.63
2022-08-17T21:22:48.778Z,47.85
2022-08-17T21:28:10.737Z,49.88
2022-08-17T21:33:20.622Z,45.75
2022-08-17T21:38:34.654Z,49.47
2022-08-17T21:43:37.526Z,54.40
2022-08-17T21:48:45.113Z,47.95
2022-08-17T21:53:53.702Z,50.28
2022-08-17T21:59:03.016Z,51.33
2022-08-17T22:04:11.470Z,53.10
2022-08-17T22:09:15.666Z,55.75
2022-08-17T22:14:21.323Z,67.32
2022-08-17T22:19:28.945Z,56.72
2022-08-17T22:24:31.124Z,53.33
2022-08-17T22:29:57.542Z,54.83
2022-08-17T22:35:19.623Z,52.28
2022-08-17T22:40:31.041Z,54.25
2022-08-17T22:45:44.059Z,54.85
2022-08-17T22:50:45.960Z,54.28
2022-08-17T22:56:14.893Z,78.13
2022-08-17T23:01:28.349Z,84.45
2022-08-17T23:06:33.725Z,87.47
2022-08-17T23:11:49.889Z,72.20
2022-08-17T23:16:52.318Z,93.05
2022-08-17T23:21:56.131Z,98.95
2022-08-17T23:26:58.944Z,112.53
2022-08-17T23:32:04.703Z,104.75
2022-08-17T23:37:07.602Z,105.97
2022-08-17T23:42:11.860Z,101.25
2022-08-17T23:47:13.948Z,89.85
2022-08-17T23:52:16.511Z,94.07
2022-08-17T23:57:33.047Z,107.57
